Historyczne dane pomiarowe

Dodano dane terminowe – wersja testowa.

Dane z okresu 1951-2019

Wersja bazy: 1.34 [2019-03-16, lista zmian], aktualizacja planowana na 2019-04-15

Dane meteo z obszaru Polski uzyskane na podstawie danych udostępnionych przez Instytut Meteorologii i Gospodarki Wodnej – Państwowy Instytut Badawczy.

 

Wybierz Datę:    

       

TemperaturaWilgotnośćWiatrCiśnienieOpadyŚniegCzas trwania zjawisk
 Stacja t tx tn tng RH VA  wxwx mslp ppp RRR   cm mm wxwxwxwxwxwxwx
1961-08-14 14.1 21.1 9.6--- 2.0 0.0---- 0.0------------
1961-08-13 13.3 17.4 12.3--- 5.3 1.3---- 8.0------------
1961-08-12 19.0 25.1 16.3--- 6.0 1.7---- 20.5------------
1961-08-11 25.0 34.5 19.6--- 2.3 1.7---- 0.0------------
1961-08-10 24.3 30.6 19.2--- 3.7 1.3---- 0.5------------
1961-08-09 23.4 30.6 14.1--- 3.3 0.3---- 19.3------------
1961-08-08 19.0 24.2 17.1--- 6.7 1.3---- 3.7------------
1961-08-07 24.2 32.0 17.2--- 1.0 1.0---- 0.0------------
1961-08-06 24.1 31.5 14.0--- 0.0 0.7---- 0.0------------
1961-08-05 19.7 24.6 15.3--- 2.3 1.3---- 0.0------------
1961-08-04 16.9 22.4 11.3--- 4.0 0.7---- 0.0------------
1961-08-03 18.9 25.0 13.7--- 6.7 0.3---- 0.0------------
1961-08-02 19.7 27.3 10.2--- 0.0 0.3---- 0.0------------
1961-08-01 16.0 22.0 11.5--- 3.7 1.7---- 2.0------------
1961-07-31 14.7 18.5 11.4--- 7.7 3.0---- 4.5------------
1961-07-30 12.3 14.5 11.4--- 8.0 2.7---- 20.0------------
1961-07-29 15.1 18.4 13.5--- 8.0 1.0---- 14.3------------
1961-07-28 21.3 29.3 16.4--- 3.3 1.0---- 5.9------------
1961-07-27 22.1 28.6 12.2--- 4.7 1.0---- 0.0------------
1961-07-26 17.5 23.0 11.9--- 3.7 1.3---- 0.0------------
1961-07-25 15.1 17.5 11.4--- 7.7 0.3---- 0.0------------
1961-07-24 15.6 20.0 9.3--- 7.0 0.7---- 0.0------------
1961-07-23 16.4 21.5 10.9--- 6.7 1.0---- 0.0------------
1961-07-22 15.5 20.0 11.7--- 4.7 1.7---- 0.1------------
1961-07-21 15.6 20.5 11.2--- 7.0 1.7---- 2.8------------
1961-07-20 15.7 20.4 9.7--- 5.3 1.3---- 6.5------------
1961-07-19 15.5 23.2 7.9--- 2.0 0.7---- 0.0------------
1961-07-18 14.8 20.0 8.4--- 3.0 0.7---- 0.3------------
1961-07-17 17.1 25.1 12.1--- 5.3 0.3---- 0.0------------
1961-07-16 16.0 22.7 14.0--- 4.3 1.0---- 0.2------------
1961-07-15 19.4 26.5 9.8--- 4.0 1.0---- 0.7------------
1961-07-14 14.7 20.2 12.4--- 3.7 1.7---- 0.0------------
1961-07-13 20.9 30.4 14.6--- 2.7 2.3---- 6.0------------
1961-07-12 20.7 28.9 10.3--- 4.7 1.7---- 1.2------------
1961-07-11 15.7 22.5 6.6--- 4.7 1.7---- 0.0------------
1961-07-10 14.2 20.5 10.3--- 6.3 2.0---- 0.0------------
1961-07-09 16.8 24.8 6.6--- 5.0 0.7---- 0.0------------
1961-07-08 14.8 21.0 6.2--- 1.7 0.3---- 0.0------------
1961-07-07 14.5 18.7 8.1--- 7.0 1.3---- 0.0------------
1961-07-06 13.1 17.6 7.5--- 5.3 0.7---- 0.3------------
1961-07-05 16.0 20.1 13.8--- 5.7 1.7---- 0.0------------
1961-07-04 22.5 31.5 14.7--- 2.3 1.0---- 0.8------------
1961-07-03 22.8 31.0 12.0--- 0.0 0.7---- 0.0------------
1961-07-02 21.0 28.7 10.4--- 0.0 0.7---- 0.0------------
1961-07-01 20.6 27.6 11.8--- 1.0 0.0---- 0.0------------
1961-06-30 18.0 24.0 12.0--- 1.3 0.7---- 0.0------------
1961-06-29 16.5 21.3 7.9--- 4.7 1.3---- 0.0------------
1961-06-28 14.9 19.6 13.3--- 6.7 1.0---- 2.2------------
1961-06-27 23.8 33.5 15.3--- 2.7 1.7---- 19.5------------
1961-06-26 23.5 33.2 14.1--- 3.0 0.3---- 0.0------------
1961-06-25 22.3 30.1 10.1--- 0.0 1.7---- 0.0------------
1961-06-24 19.0 26.0 11.9--- 4.3 0.7---- 0.0------------
1961-06-23 18.1 24.3 14.5--- 5.0 1.7---- 0.2------------
1961-06-22 18.9 25.1 9.3--- 1.3 1.7---- 5.4------------
1961-06-21 17.5 24.6 5.3--- 0.0 0.3---- 0.0------------
1961-06-20 15.9 22.1 10.3--- 1.3 1.0---- 0.0------------
1961-06-19 20.0 28.0 13.0--- 4.0 1.0---- 1.0------------
1961-06-18 19.0 26.5 8.5--- 3.0 0.7---- 0.0------------
1961-06-17 15.9 22.8 7.0--- 0.0 1.0---- 0.0------------
1961-06-16 13.0 19.4 7.3--- 1.7 1.0---- 0.0------------
259.8 ms

 

Źródłem pochodzenia danych jest Instytut Meteorologii i Gospodarki Wodnej – Państwowy Instytut Badawczy. Dane Instytutu Meteorologii i Gospodarki Wodnej – Państwowego Instytutu Badawczego zostały przetworzone.

Dane źródłowe można odnaleźć na stronie https://dane.imgw.pl